createdAt,value
2022-10-27T00:01:27.875Z,27.02
2022-10-27T00:04:29.491Z,24.30
2022-10-27T00:07:31.054Z,22.00
2022-10-27T00:10:32.658Z,25.40
2022-10-27T00:13:34.483Z,25.77
2022-10-27T00:16:39.829Z,25.60
2022-10-27T00:19:41.398Z,25.95
2022-10-27T00:22:42.956Z,28.98
2022-10-27T00:25:44.506Z,28.77
2022-10-27T00:28:46.179Z,27.00
2022-10-27T00:31:47.724Z,27.92
2022-10-27T00:34:52.173Z,27.30
2022-10-27T00:37:53.957Z,28.08
2022-10-27T00:40:55.707Z,24.03
2022-10-27T00:43:58.138Z,27.77
2022-10-27T00:47:01.704Z,28.20
2022-10-27T00:50:12.454Z,29.17
2022-10-27T00:53:14.058Z,26.80
2022-10-27T00:56:15.649Z,27.33
2022-10-27T00:59:17.217Z,25.20
2022-10-27T01:02:18.842Z,25.00
2022-10-27T01:05:24.878Z,27.70
2022-10-27T01:08:26.511Z,25.80
2022-10-27T01:11:28.096Z,28.83
2022-10-27T01:14:29.661Z,26.80
2022-10-27T01:17:37.927Z,24.70
2022-10-27T01:21:17.047Z,26.35
2022-10-27T01:24:34.667Z,26.30
2022-10-27T01:28:13.746Z,25.77
2022-10-27T01:31:20.098Z,25.23
2022-10-27T01:34:27.078Z,25.08
2022-10-27T01:38:03.236Z,24.55
2022-10-27T01:41:23.481Z,23.42
2022-10-27T01:44:28.668Z,24.67
2022-10-27T01:47:33.625Z,24.03
2022-10-27T01:50:45.248Z,23.40
2022-10-27T01:53:58.552Z,25.33
2022-10-27T01:57:21.815Z,24.75
2022-10-27T02:00:23.414Z,25.57
2022-10-27T02:03:48.643Z,24.93
2022-10-27T02:07:05.282Z,20.38
2022-10-27T02:10:07.864Z,22.77
2022-10-27T02:13:09.450Z,21.85
2022-10-27T02:16:21.924Z,23.93
2022-10-27T02:19:27.453Z,24.73
2022-10-27T02:22:29.047Z,25.15
2022-10-27T02:25:31.853Z,27.05
2022-10-27T02:28:36.605Z,30.92
2022-10-27T02:31:43.145Z,29.03
2022-10-27T02:34:44.731Z,30.83
2022-10-27T02:37:46.401Z,27.30
2022-10-27T02:40:47.971Z,28.08
2022-10-27T02:43:49.648Z,27.60
2022-10-27T02:46:52.951Z,28.67
2022-10-27T02:49:54.813Z,29.13
2022-10-27T02:52:56.361Z,32.55
2022-10-27T02:55:57.955Z,31.25
2022-10-27T02:58:59.529Z,32.58
2022-10-27T03:02:01.196Z,30.27
2022-10-27T03:05:03.628Z,32.50
2022-10-27T03:08:05.535Z,34.22
2022-10-27T03:11:07.180Z,33.08
2022-10-27T03:14:08.743Z,36.53
2022-10-27T03:17:10.338Z,32.93
2022-10-27T03:20:12.345Z,37.53
2022-10-27T03:23:14.105Z,38.25
2022-10-27T03:26:15.709Z,33.85
2022-10-27T03:29:17.446Z,36.80
2022-10-27T03:32:19.006Z,34.63
2022-10-27T03:35:25.031Z,34.60
2022-10-27T03:38:26.603Z,36.55
2022-10-27T03:41:28.188Z,35.13
2022-10-27T03:44:29.750Z,35.03
2022-10-27T03:47:31.330Z,34.73
2022-10-27T03:50:36.400Z,32.00
2022-10-27T03:53:38.071Z,36.47
2022-10-27T03:56:39.629Z,35.08
2022-10-27T03:59:41.255Z,33.03
2022-10-27T04:02:42.813Z,32.57
2022-10-27T04:05:47.746Z,33.10
2022-10-27T04:08:49.311Z,28.48
2022-10-27T04:11:50.875Z,31.60
2022-10-27T04:14:52.469Z,27.88
2022-10-27T04:17:54.802Z,28.53
2022-10-27T04:21:03.620Z,26.90
2022-10-27T04:24:05.625Z,29.17
2022-10-27T04:27:07.776Z,27.52
2022-10-27T04:30:09.876Z,30.70
2022-10-27T04:33:11.502Z,30.70
2022-10-27T04:36:13.125Z,30.03
2022-10-27T04:39:15.293Z,29.15
2022-10-27T04:42:16.834Z,26.42
2022-10-27T04:45:18.457Z,29.02
2022-10-27T04:48:20.048Z,29.37
2022-10-27T04:51:23.011Z,28.37
2022-10-27T04:54:24.860Z,28.92
2022-10-27T04:57:26.523Z,28.63
2022-10-27T05:00:28.353Z,33.15
2022-10-27T05:03:30.075Z,25.57
2022-10-27T05:06:31.668Z,27.13
2022-10-27T05:09:33.226Z,28.98
2022-10-27T05:12:34.881Z,28.08
2022-10-27T05:15:36.635Z,26.30
2022-10-27T05:18:38.289Z,25.70
2022-10-27T05:21:39.851Z,28.10
2022-10-27T05:24:41.413Z,33.08
2022-10-27T05:27:43.151Z,30.85
2022-10-27T05:30:44.733Z,30.17
2022-10-27T05:33:46.278Z,28.60
2022-10-27T05:36:48.042Z,27.83
2022-10-27T05:39:49.695Z,33.67
2022-10-27T05:42:52.905Z,33.20
2022-10-27T05:45:54.773Z,32.90
2022-10-27T05:48:56.406Z,31.27
2022-10-27T05:51:57.976Z,29.20
2022-10-27T05:54:59.674Z,31.25
2022-10-27T05:58:02.891Z,30.92
2022-10-27T06:01:04.602Z,31.20
2022-10-27T06:04:06.256Z,29.57
2022-10-27T06:07:08.198Z,28.80
2022-10-27T06:10:10.016Z,29.08
2022-10-27T06:13:13.569Z,28.42
2022-10-27T06:16:15.137Z,31.40
2022-10-27T06:19:16.744Z,26.60
2022-10-27T06:22:18.350Z,26.13
2022-10-27T06:25:20.043Z,26.17
2022-10-27T06:28:22.569Z,26.30
2022-10-27T06:31:24.365Z,25.35
2022-10-27T06:34:25.957Z,25.33
2022-10-27T06:37:27.542Z,26.83
2022-10-27T06:40:29.276Z,23.90
2022-10-27T06:43:30.883Z,23.63
2022-10-27T06:46:34.527Z,23.02
2022-10-27T06:49:36.257Z,24.67
2022-10-27T06:52:38.793Z,25.33
2022-10-27T06:55:40.460Z,27.30
2022-10-27T06:58:42.262Z,29.00
2022-10-27T07:01:43.877Z,24.88
2022-10-27T07:04:45.482Z,26.27
2022-10-27T07:07:48.531Z,25.07
2022-10-27T07:10:50.136Z,21.48
2022-10-27T07:13:51.712Z,22.75
2022-10-27T07:16:53.320Z,21.25
2022-10-27T07:19:54.906Z,20.00
2022-10-27T07:22:57.557Z,24.03
2022-10-27T07:25:59.230Z,25.88
2022-10-27T07:29:00.860Z,20.05
2022-10-27T07:32:02.458Z,20.13
2022-10-27T07:35:04.540Z,23.50
2022-10-27T07:38:06.945Z,29.00
2022-10-27T07:41:08.667Z,29.40
2022-10-27T07:44:10.214Z,28.02
2022-10-27T07:47:11.796Z,29.40
2022-10-27T07:50:13.634Z,31.23
2022-10-27T07:53:20.151Z,28.10
2022-10-27T07:56:21.745Z,28.40
2022-10-27T07:59:23.333Z,25.95
2022-10-27T08:02:25.114Z,25.50
2022-10-27T08:05:27.072Z,24.70
2022-10-27T08:08:33.325Z,26.17
2022-10-27T08:11:34.925Z,26.15
2022-10-27T08:14:36.473Z,22.60
2022-10-27T08:17:39.322Z,24.08
2022-10-27T08:20:43.282Z,22.73
2022-10-27T08:23:49.101Z,23.30
2022-10-27T08:26:50.782Z,23.70
2022-10-27T08:29:52.375Z,23.45
2022-10-27T08:33:00.933Z,24.67
2022-10-27T08:36:02.772Z,24.37
2022-10-27T08:39:08.517Z,25.37
2022-10-27T08:42:26.363Z,24.15
2022-10-27T08:45:34.526Z,23.70
2022-10-27T08:48:36.154Z,23.92
2022-10-27T08:51:37.771Z,24.90
2022-10-27T08:54:39.549Z,24.40
2022-10-27T08:57:49.420Z,22.67
2022-10-27T09:01:02.378Z,22.67
2022-10-27T09:04:07.020Z,24.88
2022-10-27T09:07:17.266Z,21.87
2022-10-27T09:10:44.472Z,24.90
2022-10-27T09:14:26.183Z,25.70
2022-10-27T09:17:41.941Z,24.35
2022-10-27T09:20:45.430Z,24.80
2022-10-27T09:23:52.031Z,23.03
2022-10-27T09:26:53.907Z,25.60
2022-10-27T09:29:56.542Z,25.08
2022-10-27T09:32:58.166Z,26.35
2022-10-27T09:36:00.227Z,26.92
2022-10-27T09:39:02.002Z,27.70
2022-10-27T09:42:03.946Z,29.40
2022-10-27T09:45:25.284Z,29.60
2022-10-27T09:48:26.883Z,31.05
2022-10-27T09:51:45.063Z,33.35
2022-10-27T09:54:57.022Z,30.67
2022-10-27T09:57:58.584Z,33.23
2022-10-27T10:01:00.925Z,33.65
2022-10-27T10:04:21.545Z,34.28
2022-10-27T10:07:47.045Z,33.90
2022-10-27T10:11:01.902Z,33.83
2022-10-27T10:14:04.280Z,35.60
2022-10-27T10:17:06.001Z,35.72
2022-10-27T10:20:09.276Z,37.03
2022-10-27T10:23:27.507Z,35.22
2022-10-27T10:26:29.551Z,36.20
2022-10-27T10:29:37.371Z,36.90
2022-10-27T10:32:39.268Z,35.28
2022-10-27T10:35:42.416Z,35.08
2022-10-27T10:38:50.670Z,35.58
2022-10-27T10:42:10.449Z,36.40
2022-10-27T10:45:20.063Z,35.63
2022-10-27T10:48:47.191Z,37.08
2022-10-27T10:52:02.081Z,37.20
2022-10-27T10:55:08.937Z,37.22
2022-10-27T10:58:13.988Z,40.73
2022-10-27T11:01:15.991Z,38.10
2022-10-27T11:04:20.969Z,39.55
2022-10-27T11:07:31.421Z,39.47
2022-10-27T11:10:34.471Z,40.45
2022-10-27T11:13:39.221Z,38.53
2022-10-27T11:16:42.935Z,43.70
2022-10-27T11:19:44.799Z,47.08
2022-10-27T11:25:54.065Z,43.53
2022-10-27T11:29:04.936Z,44.97
2022-10-27T11:32:30.055Z,42.23
2022-10-27T11:35:59.416Z,47.78
2022-10-27T11:39:10.550Z,47.47
2022-10-27T11:42:51.922Z,55.20
2022-10-27T11:46:17.269Z,54.63
2022-10-27T11:49:34.355Z,52.00
2022-10-27T11:52:44.941Z,52.28
2022-10-27T11:56:26.957Z,54.28
2022-10-27T11:59:37.861Z,52.55
2022-10-27T12:02:57.997Z,51.23
2022-10-27T12:06:14.565Z,55.50
2022-10-27T12:09:55.124Z,50.42
2022-10-27T12:13:05.660Z,58.40
2022-10-27T12:16:24.739Z,58.58
2022-10-27T12:19:28.865Z,53.17
2022-10-27T12:22:47.055Z,59.50
2022-10-27T12:26:00.031Z,58.53
2022-10-27T12:29:01.682Z,57.50
2022-10-27T12:32:06.425Z,54.75
2022-10-27T12:35:15.851Z,55.53
2022-10-27T12:38:45.569Z,58.20
2022-10-27T12:42:31.843Z,54.38
2022-10-27T12:46:24.772Z,58.47
2022-10-27T12:49:44.745Z,54.33
2022-10-27T12:53:15.852Z,55.67
2022-10-27T12:56:29.321Z,55.07
2022-10-27T12:59:43.087Z,55.08
2022-10-27T13:03:29.079Z,53.05
2022-10-27T13:06:42.712Z,52.70
2022-10-27T13:10:18.394Z,54.87
2022-10-27T13:13:35.363Z,49.13
2022-10-27T13:16:58.257Z,50.40
2022-10-27T13:20:05.192Z,54.50
2022-10-27T13:23:17.784Z,50.00
2022-10-27T13:26:32.014Z,51.57
2022-10-27T13:29:40.010Z,49.23
2022-10-27T13:32:47.666Z,49.45
2022-10-27T13:35:49.225Z,52.63
2022-10-27T13:38:51.103Z,49.05
2022-10-27T13:42:04.654Z,48.03
2022-10-27T13:45:27.835Z,50.57
2022-10-27T13:48:32.366Z,47.72
2022-10-27T13:51:48.794Z,52.45
2022-10-27T13:55:09.085Z,48.20
2022-10-27T13:58:19.285Z,48.27
2022-10-27T14:02:02.871Z,46.57
2022-10-27T14:05:04.588Z,51.35
2022-10-27T14:08:06.173Z,47.05
2022-10-27T14:11:13.126Z,44.67
2022-10-27T14:14:25.194Z,50.20
2022-10-27T14:17:26.866Z,46.20
2022-10-27T14:20:28.446Z,47.42
2022-10-27T14:23:30.322Z,47.03
2022-10-27T14:26:35.812Z,46.88
2022-10-27T14:29:38.722Z,48.83
2022-10-27T14:32:40.434Z,44.20
2022-10-27T14:35:42.125Z,43.22
2022-10-27T14:38:44.931Z,46.88
2022-10-27T14:41:47.086Z,43.78
2022-10-27T14:44:59.770Z,43.50
2022-10-27T14:48:03.259Z,41.30
2022-10-27T14:51:11.400Z,47.50
2022-10-27T14:54:14.817Z,46.97
2022-10-27T14:57:35.957Z,47.00
2022-10-27T15:00:38.034Z,47.53
2022-10-27T15:06:49.000Z,48.58
2022-10-27T15:09:52.760Z,51.13
2022-10-27T15:12:58.138Z,49.67
2022-10-27T15:16:08.425Z,48.37
2022-10-27T15:19:16.660Z,50.40
2022-10-27T15:22:18.243Z,49.20
2022-10-27T15:25:19.839Z,50.58
2022-10-27T15:28:27.013Z,52.40
2022-10-27T15:31:35.176Z,54.67
2022-10-27T15:34:37.552Z,52.80
2022-10-27T15:37:39.168Z,54.17
2022-10-27T15:40:45.126Z,50.20
2022-10-27T15:43:48.884Z,53.60
2022-10-27T15:46:54.609Z,50.87
2022-10-27T15:49:56.204Z,54.73
2022-10-27T15:53:17.559Z,51.70
2022-10-27T15:56:37.218Z,57.22
2022-10-27T15:59:38.829Z,54.10
2022-10-27T16:02:48.229Z,55.87
2022-10-27T16:05:54.318Z,56.87
2022-10-27T16:08:57.621Z,55.45
2022-10-27T16:11:59.287Z,51.45
2022-10-27T16:15:05.945Z,54.63
2022-10-27T16:18:09.902Z,54.60
2022-10-27T16:21:24.971Z,53.80
2022-10-27T16:24:26.660Z,51.25
2022-10-27T16:27:33.695Z,54.85
2022-10-27T16:30:38.411Z,51.78
2022-10-27T16:33:39.998Z,51.07
2022-10-27T16:36:41.608Z,48.40
2022-10-27T16:39:43.414Z,53.20
2022-10-27T16:42:47.020Z,49.03
2022-10-27T16:45:48.633Z,51.25
2022-10-27T16:48:50.219Z,48.03
2022-10-27T16:51:51.822Z,49.80
2022-10-27T16:54:53.470Z,48.70
2022-10-27T16:57:55.957Z,50.38
2022-10-27T17:00:57.973Z,46.78
2022-10-27T17:04:00.996Z,50.87
2022-10-27T17:07:02.627Z,47.60
2022-10-27T17:10:04.821Z,51.13
2022-10-27T17:13:06.467Z,54.00
2022-10-27T17:16:12.536Z,52.63
2022-10-27T17:19:14.099Z,53.57
2022-10-27T17:22:15.748Z,47.97
2022-10-27T17:25:17.325Z,49.20
2022-10-27T17:28:18.898Z,50.95
2022-10-27T17:31:22.853Z,51.58
2022-10-27T17:34:25.367Z,49.90
2022-10-27T17:37:27.118Z,50.57
2022-10-27T17:40:28.673Z,51.70
2022-10-27T17:43:35.901Z,53.70
2022-10-27T17:46:41.834Z,53.00
2022-10-27T17:49:43.382Z,51.90
2022-10-27T17:52:44.972Z,54.67
2022-10-27T17:55:46.689Z,53.22
2022-10-27T17:58:48.362Z,51.83
2022-10-27T18:01:50.230Z,55.63
2022-10-27T18:04:52.158Z,50.30
2022-10-27T18:07:53.947Z,53.57
2022-10-27T18:11:06.577Z,51.38
2022-10-27T18:14:13.372Z,53.45
2022-10-27T18:17:14.977Z,49.80
2022-10-27T18:20:16.785Z,51.27
2022-10-27T18:23:18.416Z,54.73
2022-10-27T18:26:19.992Z,51.92
2022-10-27T18:29:23.877Z,52.60
2022-10-27T18:32:28.548Z,51.97
2022-10-27T18:35:33.227Z,55.23
2022-10-27T18:38:34.903Z,51.47
2022-10-27T18:41:36.568Z,55.42
2022-10-27T18:44:38.170Z,58.42
2022-10-27T18:47:39.725Z,67.18
2022-10-27T18:50:41.330Z,61.20
2022-10-27T18:53:43.478Z,65.90
2022-10-27T18:56:45.042Z,64.03
2022-10-27T18:59:46.612Z,67.70
2022-10-27T19:02:51.253Z,57.55
2022-10-27T19:05:57.531Z,64.43
2022-10-27T19:08:59.684Z,69.57
2022-10-27T19:12:01.301Z,55.55
2022-10-27T19:15:02.870Z,60.00
2022-10-27T19:18:04.682Z,64.93
2022-10-27T19:24:14.337Z,65.03
2022-10-27T19:27:15.938Z,66.47
2022-10-27T19:30:21.435Z,67.88
2022-10-27T19:33:23.288Z,74.15
2022-10-27T19:36:26.695Z,68.07
2022-10-27T19:39:28.355Z,66.70
2022-10-27T19:42:29.910Z,68.88
2022-10-27T19:45:31.511Z,62.22
2022-10-27T19:48:33.798Z,63.80
2022-10-27T19:51:36.767Z,68.17
2022-10-27T19:54:38.385Z,79.47
2022-10-27T19:57:39.956Z,68.60
2022-10-27T20:00:41.528Z,81.68
2022-10-27T20:03:43.134Z,97.60
2022-10-27T20:06:47.730Z,65.63
2022-10-27T20:09:49.317Z,69.33
2022-10-27T20:12:51.195Z,64.38
2022-10-27T20:15:53.044Z,70.22
2022-10-27T20:18:54.653Z,64.40
2022-10-27T20:21:59.947Z,96.17
2022-10-27T20:25:01.509Z,77.13
2022-10-27T20:28:03.097Z,79.60
2022-10-27T20:31:05.766Z,92.32
2022-10-27T20:34:10.404Z,100.55
2022-10-27T20:37:12.040Z,75.97
2022-10-27T20:40:13.655Z,92.90
2022-10-27T20:43:15.190Z,69.45
2022-10-27T20:46:16.766Z,71.78
2022-10-27T20:49:18.338Z,74.18
2022-10-27T20:52:22.683Z,74.27
2022-10-27T20:55:24.326Z,69.07
2022-10-27T20:58:26.143Z,81.80
2022-10-27T21:01:32.547Z,84.57
2022-10-27T21:04:34.221Z,79.25
2022-10-27T21:07:38.554Z,71.17
2022-10-27T21:10:42.891Z,74.03
2022-10-27T21:13:48.219Z,75.13
2022-10-27T21:16:52.064Z,71.90
2022-10-27T21:19:53.856Z,73.40
2022-10-27T21:22:55.686Z,64.37
2022-10-27T21:26:02.286Z,95.27
2022-10-27T21:29:03.891Z,83.13
2022-10-27T21:32:05.788Z,108.95
2022-10-27T21:35:07.822Z,82.50
2022-10-27T21:38:09.408Z,99.00
2022-10-27T21:41:11.751Z,117.53
2022-10-27T21:44:13.393Z,81.80
2022-10-27T21:47:15.246Z,104.10
2022-10-27T21:50:16.822Z,132.50
2022-10-27T21:53:22.559Z,103.93
2022-10-27T21:56:24.396Z,83.20
2022-10-27T21:59:26.118Z,93.65
2022-10-27T22:02:27.707Z,97.53
2022-10-27T22:05:29.279Z,217.50
2022-10-27T22:08:34.849Z,173.20
2022-10-27T22:11:36.816Z,127.90
2022-10-27T22:14:38.597Z,117.53
2022-10-27T22:17:40.184Z,132.27
2022-10-27T22:20:41.772Z,120.97
2022-10-27T22:23:43.485Z,89.93
2022-10-27T22:26:45.054Z,76.57
2022-10-27T22:29:46.625Z,103.95
2022-10-27T22:32:48.181Z,118.07
2022-10-27T22:35:49.770Z,88.05
2022-10-27T22:38:55.779Z,125.67
2022-10-27T22:41:57.348Z,125.47
2022-10-27T22:44:58.941Z,93.13
2022-10-27T22:48:00.546Z,93.05
2022-10-27T22:51:06.882Z,139.57
2022-10-27T22:54:08.537Z,91.67
2022-10-27T22:57:10.227Z,122.07
2022-10-27T23:00:12.283Z,126.40
2022-10-27T23:03:14.095Z,76.03
2022-10-27T23:06:15.684Z,147.82
2022-10-27T23:09:19.013Z,121.63
2022-10-27T23:12:20.712Z,89.93
2022-10-27T23:15:22.317Z,87.93
2022-10-27T23:18:24.155Z,69.28
2022-10-27T23:21:25.981Z,107.82
2022-10-27T23:24:27.568Z,78.13
2022-10-27T23:27:29.141Z,101.17
2022-10-27T23:30:30.706Z,108.75
2022-10-27T23:33:32.324Z,86.50
2022-10-27T23:36:35.243Z,59.15
2022-10-27T23:39:36.882Z,79.83
2022-10-27T23:42:38.447Z,94.33
2022-10-27T23:45:40.042Z,88.13
2022-10-27T23:48:41.598Z,90.43
2022-10-27T23:51:43.215Z,78.10
2022-10-27T23:54:45.430Z,104.17
2022-10-27T23:57:47.053Z,95.17
